sensor_id;sensor_type;location;lat;lon;timestamp;temperature;humidity
38380;DHT22;38377;47.418;18.882;2023-07-20T00:01:26;21.90;99.90
38380;DHT22;38377;47.418;18.882;2023-07-20T00:03:51;21.80;99.90
38380;DHT22;38377;47.418;18.882;2023-07-20T00:06:24;21.70;99.90
38380;DHT22;38377;47.418;18.882;2023-07-20T00:08:50;21.70;99.90
38380;DHT22;38377;47.418;18.882;2023-07-20T00:11:16;21.70;99.90
38380;DHT22;38377;47.418;18.882;2023-07-20T00:13:42;21.70;99.90
38380;DHT22;38377;47.418;18.882;2023-07-20T00:16:08;21.70;99.90
38380;DHT22;38377;47.418;18.882;2023-07-20T00:18:33;21.80;99.90
38380;DHT22;38377;47.418;18.882;2023-07-20T00:20:59;21.90;99.90
38380;DHT22;38377;47.418;18.882;2023-07-20T00:23:28;21.90;99.90
38380;DHT22;38377;47.418;18.882;2023-07-20T00:25:54;22.00;99.90
38380;DHT22;38377;47.418;18.882;2023-07-20T00:28:20;22.00;99.90
38380;DHT22;38377;47.418;18.882;2023-07-20T00:30:46;22.10;99.90
38380;DHT22;38377;47.418;18.882;2023-07-20T00:33:14;22.10;99.90
38380;DHT22;38377;47.418;18.882;2023-07-20T00:35:40;22.10;99.90
38380;DHT22;38377;47.418;18.882;2023-07-20T00:38:06;22.10;99.90
38380;DHT22;38377;47.418;18.882;2023-07-20T00:40:38;22.10;99.90
38380;DHT22;38377;47.418;18.882;2023-07-20T00:43:04;22.10;99.90
38380;DHT22;38377;47.418;18.882;2023-07-20T00:45:31;22.10;99.90
38380;DHT22;38377;47.418;18.882;2023-07-20T00:47:58;22.00;99.90
38380;DHT22;38377;47.418;18.882;2023-07-20T00:50:26;22.00;99.90
38380;DHT22;38377;47.418;18.882;2023-07-20T00:52:52;21.90;99.90
38380;DHT22;38377;47.418;18.882;2023-07-20T00:55:19;21.90;99.90
38380;DHT22;38377;47.418;18.882;2023-07-20T00:57:45;21.90;99.90
38380;DHT22;38377;47.418;18.882;2023-07-20T01:00:11;21.90;99.90
38380;DHT22;38377;47.418;18.882;2023-07-20T01:02:37;21.90;99.90
38380;DHT22;38377;47.418;18.882;2023-07-20T01:05:03;21.80;99.90
38380;DHT22;38377;47.418;18.882;2023-07-20T01:07:31;21.80;99.90
38380;DHT22;38377;47.418;18.882;2023-07-20T01:14:51;21.80;99.90
38380;DHT22;38377;47.418;18.882;2023-07-20T01:17:20;21.90;99.90
38380;DHT22;38377;47.418;18.882;2023-07-20T01:19:45;21.90;99.90
38380;DHT22;38377;47.418;18.882;2023-07-20T01:31:17;21.80;99.90
38380;DHT22;38377;47.418;18.882;2023-07-20T01:33:44;21.80;99.90
38380;DHT22;38377;47.418;18.882;2023-07-20T01:36:10;21.70;99.90
38380;DHT22;38377;47.418;18.882;2023-07-20T01:38:37;21.70;99.90
38380;DHT22;38377;47.418;18.882;2023-07-20T01:41:03;21.70;99.90
38380;DHT22;38377;47.418;18.882;2023-07-20T01:43:29;21.70;99.90
38380;DHT22;38377;47.418;18.882;2023-07-20T01:45:55;21.60;99.90
38380;DHT22;38377;47.418;18.882;2023-07-20T01:48:21;21.60;99.90
38380;DHT22;38377;47.418;18.882;2023-07-20T01:50:46;21.60;99.90
38380;DHT22;38377;47.418;18.882;2023-07-20T01:53:12;21.60;99.90
38380;DHT22;38377;47.418;18.882;2023-07-20T01:55:38;21.70;99.90
38380;DHT22;38377;47.418;18.882;2023-07-20T01:58:04;21.60;99.90
38380;DHT22;38377;47.418;18.882;2023-07-20T02:00:30;21.70;99.90
38380;DHT22;38377;47.418;18.882;2023-07-20T02:02:55;21.60;99.90
38380;DHT22;38377;47.418;18.882;2023-07-20T02:05:21;21.70;99.90
38380;DHT22;38377;47.418;18.882;2023-07-20T02:07:47;21.60;99.90
38380;DHT22;38377;47.418;18.882;2023-07-20T02:10:13;21.60;99.90
38380;DHT22;38377;47.418;18.882;2023-07-20T02:12:38;21.60;99.90
38380;DHT22;38377;47.418;18.882;2023-07-20T02:15:04;21.60;99.90
38380;DHT22;38377;47.418;18.882;2023-07-20T02:17:30;21.70;99.90
38380;DHT22;38377;47.418;18.882;2023-07-20T02:19:56;21.70;99.90
38380;DHT22;38377;47.418;18.882;2023-07-20T02:22:23;21.70;99.90
38380;DHT22;38377;47.418;18.882;2023-07-20T02:24:49;21.70;99.90
38380;DHT22;38377;47.418;18.882;2023-07-20T02:27:15;21.80;99.90
38380;DHT22;38377;47.418;18.882;2023-07-20T02:29:41;21.80;99.90
38380;DHT22;38377;47.418;18.882;2023-07-20T02:32:08;21.90;99.90
38380;DHT22;38377;47.418;18.882;2023-07-20T02:34:35;21.90;99.90
38380;DHT22;38377;47.418;18.882;2023-07-20T02:37:01;21.90;99.90
38380;DHT22;38377;47.418;18.882;2023-07-20T02:39:27;21.90;99.90
38380;DHT22;38377;47.418;18.882;2023-07-20T02:41:54;21.90;99.90
38380;DHT22;38377;47.418;18.882;2023-07-20T02:44:20;21.80;99.90
38380;DHT22;38377;47.418;18.882;2023-07-20T02:46:45;21.80;99.90
38380;DHT22;38377;47.418;18.882;2023-07-20T02:49:11;21.80;99.90
38380;DHT22;38377;47.418;18.882;2023-07-20T02:51:37;21.70;99.90
38380;DHT22;38377;47.418;18.882;2023-07-20T02:54:03;21.70;99.90
38380;DHT22;38377;47.418;18.882;2023-07-20T02:56:29;21.60;99.90
38380;DHT22;38377;47.418;18.882;2023-07-20T02:58:55;21.60;99.90
38380;DHT22;38377;47.418;18.882;2023-07-20T03:01:20;21.60;99.90
38380;DHT22;38377;47.418;18.882;2023-07-20T03:03:46;21.60;99.90
38380;DHT22;38377;47.418;18.882;2023-07-20T03:06:16;21.60;99.90
38380;DHT22;38377;47.418;18.882;2023-07-20T03:08:42;21.60;99.90
38380;DHT22;38377;47.418;18.882;2023-07-20T03:11:16;21.60;99.90
38380;DHT22;38377;47.418;18.882;2023-07-20T03:13:42;21.60;99.90
38380;DHT22;38377;47.418;18.882;2023-07-20T03:16:09;21.50;99.90
38380;DHT22;38377;47.418;18.882;2023-07-20T03:18:39;21.40;99.90
38380;DHT22;38377;47.418;18.882;2023-07-20T03:21:07;21.40;99.90
38380;DHT22;38377;47.418;18.882;2023-07-20T03:23:33;21.40;99.90
38380;DHT22;38377;47.418;18.882;2023-07-20T03:25:58;21.40;99.90
38380;DHT22;38377;47.418;18.882;2023-07-20T03:28:24;21.30;99.90
38380;DHT22;38377;47.418;18.882;2023-07-20T03:30:54;21.30;99.90
38380;DHT22;38377;47.418;18.882;2023-07-20T03:33:22;21.30;99.90
38380;DHT22;38377;47.418;18.882;2023-07-20T03:35:47;21.30;99.90
38380;DHT22;38377;47.418;18.882;2023-07-20T03:38:13;21.30;99.90
38380;DHT22;38377;47.418;18.882;2023-07-20T03:40:38;21.30;99.90
38380;DHT22;38377;47.418;18.882;2023-07-20T03:43:04;21.40;99.90
38380;DHT22;38377;47.418;18.882;2023-07-20T03:45:30;21.40;99.90
38380;DHT22;38377;47.418;18.882;2023-07-20T03:47:56;21.40;99.90
38380;DHT22;38377;47.418;18.882;2023-07-20T03:50:21;21.40;99.90
38380;DHT22;38377;47.418;18.882;2023-07-20T03:52:47;21.40;99.90
38380;DHT22;38377;47.418;18.882;2023-07-20T03:55:13;21.30;99.90
38380;DHT22;38377;47.418;18.882;2023-07-20T03:57:38;21.30;99.90
38380;DHT22;38377;47.418;18.882;2023-07-20T04:00:05;21.20;99.90
38380;DHT22;38377;47.418;18.882;2023-07-20T04:02:33;21.20;99.90
38380;DHT22;38377;47.418;18.882;2023-07-20T04:04:58;21.10;99.90
38380;DHT22;38377;47.418;18.882;2023-07-20T04:07:24;21.20;99.90
38380;DHT22;38377;47.418;18.882;2023-07-20T04:09:50;21.10;99.90
38380;DHT22;38377;47.418;18.882;2023-07-20T04:12:15;21.10;99.90
38380;DHT22;38377;47.418;18.882;2023-07-20T04:14:41;21.10;99.90
38380;DHT22;38377;47.418;18.882;2023-07-20T04:17:07;21.20;99.90
38380;DHT22;38377;47.418;18.882;2023-07-20T04:19:33;21.20;99.90
38380;DHT22;38377;47.418;18.882;2023-07-20T04:21:59;21.30;99.90
38380;DHT22;38377;47.418;18.882;2023-07-20T04:24:25;21.30;99.90
38380;DHT22;38377;47.418;18.882;2023-07-20T04:26:50;21.30;99.90
38380;DHT22;38377;47.418;18.882;2023-07-20T04:29:16;21.40;99.90
38380;DHT22;38377;47.418;18.882;2023-07-20T04:31:42;21.40;99.90
38380;DHT22;38377;47.418;18.882;2023-07-20T04:34:07;21.50;99.90
38380;DHT22;38377;47.418;18.882;2023-07-20T04:36:33;21.60;99.70
38380;DHT22;38377;47.418;18.882;2023-07-20T04:38:59;21.70;99.50
38380;DHT22;38377;47.418;18.882;2023-07-20T04:41:24;21.90;99.30
38380;DHT22;38377;47.418;18.882;2023-07-20T04:43:50;21.90;99.00
38380;DHT22;38377;47.418;18.882;2023-07-20T04:46:16;22.00;99.20
38380;DHT22;38377;47.418;18.882;2023-07-20T04:48:43;22.00;99.10
38380;DHT22;38377;47.418;18.882;2023-07-20T04:51:09;22.00;98.80
38380;DHT22;38377;47.418;18.882;2023-07-20T04:53:35;22.10;98.80
38380;DHT22;38377;47.418;18.882;2023-07-20T04:56:01;22.10;98.40
38380;DHT22;38377;47.418;18.882;2023-07-20T04:58:27;22.20;98.30
38380;DHT22;38377;47.418;18.882;2023-07-20T05:00:53;22.40;97.60
38380;DHT22;38377;47.418;18.882;2023-07-20T05:03:19;22.50;97.60
38380;DHT22;38377;47.418;18.882;2023-07-20T05:05:46;22.50;97.70
38380;DHT22;38377;47.418;18.882;2023-07-20T05:08:11;22.50;97.70
38380;DHT22;38377;47.418;18.882;2023-07-20T05:10:37;22.40;97.50
38380;DHT22;38377;47.418;18.882;2023-07-20T05:13:03;22.40;97.60
38380;DHT22;38377;47.418;18.882;2023-07-20T05:15:29;22.40;97.40
38380;DHT22;38377;47.418;18.882;2023-07-20T05:17:54;22.30;97.20
38380;DHT22;38377;47.418;18.882;2023-07-20T05:20:20;22.30;97.20
38380;DHT22;38377;47.418;18.882;2023-07-20T05:22:46;22.40;97.60
38380;DHT22;38377;47.418;18.882;2023-07-20T05:25:21;22.60;96.90
38380;DHT22;38377;47.418;18.882;2023-07-20T05:27:50;22.60;96.50
38380;DHT22;38377;47.418;18.882;2023-07-20T05:30:16;22.90;96.60
38380;DHT22;38377;47.418;18.882;2023-07-20T05:32:41;23.10;96.20
38380;DHT22;38377;47.418;18.882;2023-07-20T05:35:08;23.10;95.70
38380;DHT22;38377;47.418;18.882;2023-07-20T05:37:34;23.20;94.80
38380;DHT22;38377;47.418;18.882;2023-07-20T05:39:59;23.60;94.70
38380;DHT22;38377;47.418;18.882;2023-07-20T05:42:25;23.70;94.20
38380;DHT22;38377;47.418;18.882;2023-07-20T05:44:51;23.90;94.20
38380;DHT22;38377;47.418;18.882;2023-07-20T05:47:18;23.90;93.90
38380;DHT22;38377;47.418;18.882;2023-07-20T05:49:44;24.00;93.90
38380;DHT22;38377;47.418;18.882;2023-07-20T05:52:09;24.10;93.40
38380;DHT22;38377;47.418;18.882;2023-07-20T05:54:35;24.00;93.60
38380;DHT22;38377;47.418;18.882;2023-07-20T05:57:01;23.80;93.50
38380;DHT22;38377;47.418;18.882;2023-07-20T05:59:27;23.60;94.00
38380;DHT22;38377;47.418;18.882;2023-07-20T06:01:55;23.50;93.90
38380;DHT22;38377;47.418;18.882;2023-07-20T06:04:20;23.50;94.20
38380;DHT22;38377;47.418;18.882;2023-07-20T06:06:46;23.40;94.10
38380;DHT22;38377;47.418;18.882;2023-07-20T06:09:12;23.40;94.20
38380;DHT22;38377;47.418;18.882;2023-07-20T06:11:38;23.40;94.40
38380;DHT22;38377;47.418;18.882;2023-07-20T06:14:04;23.40;94.30
38380;DHT22;38377;47.418;18.882;2023-07-20T06:16:30;23.30;94.20
38380;DHT22;38377;47.418;18.882;2023-07-20T06:18:56;23.40;94.70
38380;DHT22;38377;47.418;18.882;2023-07-20T06:21:22;23.40;94.30
38380;DHT22;38377;47.418;18.882;2023-07-20T06:23:48;23.50;94.50
38380;DHT22;38377;47.418;18.882;2023-07-20T06:26:26;23.50;94.20
38380;DHT22;38377;47.418;18.882;2023-07-20T06:28:55;23.60;94.50
38380;DHT22;38377;47.418;18.882;2023-07-20T06:31:21;23.50;94.40
38380;DHT22;38377;47.418;18.882;2023-07-20T06:33:47;23.50;94.70
38380;DHT22;38377;47.418;18.882;2023-07-20T06:36:12;23.40;94.00
38380;DHT22;38377;47.418;18.882;2023-07-20T06:38:38;23.30;94.10
38380;DHT22;38377;47.418;18.882;2023-07-20T06:41:04;23.30;94.70
38380;DHT22;38377;47.418;18.882;2023-07-20T06:43:30;23.20;94.50
38380;DHT22;38377;47.418;18.882;2023-07-20T06:45:55;23.20;94.50
38380;DHT22;38377;47.418;18.882;2023-07-20T06:48:21;23.30;93.80
38380;DHT22;38377;47.418;18.882;2023-07-20T06:50:47;23.50;93.40
38380;DHT22;38377;47.418;18.882;2023-07-20T06:53:13;23.60;93.50
38380;DHT22;38377;47.418;18.882;2023-07-20T06:55:39;23.90;92.60
38380;DHT22;38377;47.418;18.882;2023-07-20T06:58:05;23.90;93.10
38380;DHT22;38377;47.418;18.882;2023-07-20T07:00:30;24.10;92.30
38380;DHT22;38377;47.418;18.882;2023-07-20T07:02:56;24.30;92.60
38380;DHT22;38377;47.418;18.882;2023-07-20T07:05:21;24.40;90.30
38380;DHT22;38377;47.418;18.882;2023-07-20T07:07:47;24.40;90.00
38380;DHT22;38377;47.418;18.882;2023-07-20T07:10:13;24.50;90.10
38380;DHT22;38377;47.418;18.882;2023-07-20T07:12:39;24.70;89.70
38380;DHT22;38377;47.418;18.882;2023-07-20T07:15:05;24.80;88.70
38380;DHT22;38377;47.418;18.882;2023-07-20T07:17:36;24.90;86.50
38380;DHT22;38377;47.418;18.882;2023-07-20T07:20:02;25.00;86.10
38380;DHT22;38377;47.418;18.882;2023-07-20T07:22:29;25.10;85.50
38380;DHT22;38377;47.418;18.882;2023-07-20T07:24:55;25.10;84.20
38380;DHT22;38377;47.418;18.882;2023-07-20T07:27:20;25.10;83.00
38380;DHT22;38377;47.418;18.882;2023-07-20T07:29:46;25.20;83.10
38380;DHT22;38377;47.418;18.882;2023-07-20T07:32:12;25.30;82.30
38380;DHT22;38377;47.418;18.882;2023-07-20T07:34:38;25.30;81.10
38380;DHT22;38377;47.418;18.882;2023-07-20T07:37:07;25.40;81.50
38380;DHT22;38377;47.418;18.882;2023-07-20T07:39:33;25.50;81.00
38380;DHT22;38377;47.418;18.882;2023-07-20T07:41:58;25.40;80.50
38380;DHT22;38377;47.418;18.882;2023-07-20T07:44:24;25.50;80.50
38380;DHT22;38377;47.418;18.882;2023-07-20T07:46:50;25.70;81.00
38380;DHT22;38377;47.418;18.882;2023-07-20T07:49:16;25.70;80.60
38380;DHT22;38377;47.418;18.882;2023-07-20T07:51:44;26.00;82.20
38380;DHT22;38377;47.418;18.882;2023-07-20T07:54:09;25.90;80.30
38380;DHT22;38377;47.418;18.882;2023-07-20T07:56:35;25.50;81.90
38380;DHT22;38377;47.418;18.882;2023-07-20T07:59:01;25.50;81.50
38380;DHT22;38377;47.418;18.882;2023-07-20T08:01:26;25.90;81.20
38380;DHT22;38377;47.418;18.882;2023-07-20T08:03:52;26.20;79.90
38380;DHT22;38377;47.418;18.882;2023-07-20T08:06:18;26.50;79.30
38380;DHT22;38377;47.418;18.882;2023-07-20T08:08:43;26.40;79.30
38380;DHT22;38377;47.418;18.882;2023-07-20T08:11:09;26.00;79.80
38380;DHT22;38377;47.418;18.882;2023-07-20T08:13:36;25.50;80.20
38380;DHT22;38377;47.418;18.882;2023-07-20T08:16:01;25.00;80.50
38380;DHT22;38377;47.418;18.882;2023-07-20T08:18:30;24.70;79.80
38380;DHT22;38377;47.418;18.882;2023-07-20T08:20:56;24.60;80.60
38380;DHT22;38377;47.418;18.882;2023-07-20T08:23:22;24.60;81.60
38380;DHT22;38377;47.418;18.882;2023-07-20T08:25:48;24.50;81.10
38380;DHT22;38377;47.418;18.882;2023-07-20T08:28:14;24.60;81.10
38380;DHT22;38377;47.418;18.882;2023-07-20T08:30:45;24.70;80.80
38380;DHT22;38377;47.418;18.882;2023-07-20T08:33:13;24.60;80.80
38380;DHT22;38377;47.418;18.882;2023-07-20T08:35:39;24.80;80.00
38380;DHT22;38377;47.418;18.882;2023-07-20T08:38:04;25.30;76.30
38380;DHT22;38377;47.418;18.882;2023-07-20T08:40:35;25.30;76.20
38380;DHT22;38377;47.418;18.882;2023-07-20T08:43:04;25.30;76.30
38380;DHT22;38377;47.418;18.882;2023-07-20T08:45:33;25.50;76.80
38380;DHT22;38377;47.418;18.882;2023-07-20T08:48:01;25.80;77.40
38380;DHT22;38377;47.418;18.882;2023-07-20T08:50:30;26.30;76.50
38380;DHT22;38377;47.418;18.882;2023-07-20T08:52:57;26.90;75.90
38380;DHT22;38377;47.418;18.882;2023-07-20T08:55:24;27.20;74.90
38380;DHT22;38377;47.418;18.882;2023-07-20T08:57:54;27.40;74.40
38380;DHT22;38377;47.418;18.882;2023-07-20T09:00:21;27.70;73.40
38380;DHT22;38377;47.418;18.882;2023-07-20T09:02:52;27.80;70.80
38380;DHT22;38377;47.418;18.882;2023-07-20T09:05:22;27.60;69.30
38380;DHT22;38377;47.418;18.882;2023-07-20T09:07:48;27.50;69.40
38380;DHT22;38377;47.418;18.882;2023-07-20T09:10:14;27.10;70.40
38380;DHT22;38377;47.418;18.882;2023-07-20T09:12:42;27.20;70.40
38380;DHT22;38377;47.418;18.882;2023-07-20T09:15:09;27.60;70.30
38380;DHT22;38377;47.418;18.882;2023-07-20T09:17:34;27.90;70.30
38380;DHT22;38377;47.418;18.882;2023-07-20T09:20:04;28.20;70.50
38380;DHT22;38377;47.418;18.882;2023-07-20T09:22:34;28.50;69.30
38380;DHT22;38377;47.418;18.882;2023-07-20T09:25:00;28.40;68.40
38380;DHT22;38377;47.418;18.882;2023-07-20T09:27:36;28.20;69.00
38380;DHT22;38377;47.418;18.882;2023-07-20T09:30:03;28.40;69.80
38380;DHT22;38377;47.418;18.882;2023-07-20T09:32:29;28.50;69.20
38380;DHT22;38377;47.418;18.882;2023-07-20T09:34:55;28.10;66.80
38380;DHT22;38377;47.418;18.882;2023-07-20T09:37:21;28.00;67.20
38380;DHT22;38377;47.418;18.882;2023-07-20T09:39:48;27.80;67.60
38380;DHT22;38377;47.418;18.882;2023-07-20T09:42:15;28.10;70.10
38380;DHT22;38377;47.418;18.882;2023-07-20T09:44:43;28.30;67.40
38380;DHT22;38377;47.418;18.882;2023-07-20T09:47:09;28.40;68.10
38380;DHT22;38377;47.418;18.882;2023-07-20T09:49:42;28.40;67.00
38380;DHT22;38377;47.418;18.882;2023-07-20T09:52:11;28.20;66.90
38380;DHT22;38377;47.418;18.882;2023-07-20T09:54:41;28.20;69.70
38380;DHT22;38377;47.418;18.882;2023-07-20T09:57:07;28.40;67.30
38380;DHT22;38377;47.418;18.882;2023-07-20T09:59:37;28.20;69.00
38380;DHT22;38377;47.418;18.882;2023-07-20T10:02:09;28.40;68.60
38380;DHT22;38377;47.418;18.882;2023-07-20T10:04:37;28.60;67.60
38380;DHT22;38377;47.418;18.882;2023-07-20T10:07:05;28.70;66.50
38380;DHT22;38377;47.418;18.882;2023-07-20T10:09:36;28.80;67.00
38380;DHT22;38377;47.418;18.882;2023-07-20T10:12:05;28.90;66.30
38380;DHT22;38377;47.418;18.882;2023-07-20T10:14:34;28.50;67.00
38380;DHT22;38377;47.418;18.882;2023-07-20T10:17:05;27.80;67.50
38380;DHT22;38377;47.418;18.882;2023-07-20T10:19:42;27.50;69.20
38380;DHT22;38377;47.418;18.882;2023-07-20T10:22:19;27.50;70.30
38380;DHT22;38377;47.418;18.882;2023-07-20T10:24:48;27.80;69.50
38380;DHT22;38377;47.418;18.882;2023-07-20T10:27:14;28.00;69.20
38380;DHT22;38377;47.418;18.882;2023-07-20T10:29:41;27.70;67.80
38380;DHT22;38377;47.418;18.882;2023-07-20T10:32:08;27.40;68.90
38380;DHT22;38377;47.418;18.882;2023-07-20T10:34:34;27.30;71.30
38380;DHT22;38377;47.418;18.882;2023-07-20T10:37:00;27.40;70.00
38380;DHT22;38377;47.418;18.882;2023-07-20T10:39:31;27.20;70.30
38380;DHT22;38377;47.418;18.882;2023-07-20T10:42:01;27.20;71.50
38380;DHT22;38377;47.418;18.882;2023-07-20T10:44:29;27.20;70.30
38380;DHT22;38377;47.418;18.882;2023-07-20T10:47:02;27.30;70.60
38380;DHT22;38377;47.418;18.882;2023-07-20T10:49:28;27.90;69.10
38380;DHT22;38377;47.418;18.882;2023-07-20T10:51:58;28.40;68.50
38380;DHT22;38377;47.418;18.882;2023-07-20T10:56:55;28.80;66.00
38380;DHT22;38377;47.418;18.882;2023-07-20T11:01:56;27.80;65.80
38380;DHT22;38377;47.418;18.882;2023-07-20T11:04:38;27.40;67.10
38380;DHT22;38377;47.418;18.882;2023-07-20T11:07:05;27.30;67.00
38380;DHT22;38377;47.418;18.882;2023-07-20T11:09:35;27.50;64.30
38380;DHT22;38377;47.418;18.882;2023-07-20T11:12:15;27.50;65.80
38380;DHT22;38377;47.418;18.882;2023-07-20T11:14:55;27.80;67.40
38380;DHT22;38377;47.418;18.882;2023-07-20T11:17:32;27.90;65.30
38380;DHT22;38377;47.418;18.882;2023-07-20T11:19:59;28.20;64.20
38380;DHT22;38377;47.418;18.882;2023-07-20T11:22:30;28.40;63.90
38380;DHT22;38377;47.418;18.882;2023-07-20T11:24:57;28.50;63.70
38380;DHT22;38377;47.418;18.882;2023-07-20T11:27:23;28.30;63.80
38380;DHT22;38377;47.418;18.882;2023-07-20T11:29:49;27.90;63.50
38380;DHT22;38377;47.418;18.882;2023-07-20T11:32:22;27.90;65.60
38380;DHT22;38377;47.418;18.882;2023-07-20T11:34:49;28.00;64.60
38380;DHT22;38377;47.418;18.882;2023-07-20T11:37:15;28.10;64.60
38380;DHT22;38377;47.418;18.882;2023-07-20T11:39:41;28.00;63.50
38380;DHT22;38377;47.418;18.882;2023-07-20T11:42:07;28.00;66.00
38380;DHT22;38377;47.418;18.882;2023-07-20T11:44:33;28.40;64.60
38380;DHT22;38377;47.418;18.882;2023-07-20T11:47:00;28.60;65.20
38380;DHT22;38377;47.418;18.882;2023-07-20T11:49:28;28.60;65.20
38380;DHT22;38377;47.418;18.882;2023-07-20T11:51:54;28.70;63.00
38380;DHT22;38377;47.418;18.882;2023-07-20T11:54:20;28.70;63.90
38380;DHT22;38377;47.418;18.882;2023-07-20T11:56:46;28.70;65.90
38380;DHT22;38377;47.418;18.882;2023-07-20T11:59:12;28.80;64.50
38380;DHT22;38377;47.418;18.882;2023-07-20T12:01:38;28.80;62.80
38380;DHT22;38377;47.418;18.882;2023-07-20T12:04:04;28.80;63.90
38380;DHT22;38377;47.418;18.882;2023-07-20T12:06:30;28.90;63.90
38380;DHT22;38377;47.418;18.882;2023-07-20T12:08:57;29.00;63.90
38380;DHT22;38377;47.418;18.882;2023-07-20T12:11:37;28.90;63.90
38380;DHT22;38377;47.418;18.882;2023-07-20T12:14:06;28.80;62.20
38380;DHT22;38377;47.418;18.882;2023-07-20T12:16:33;28.90;63.50
38380;DHT22;38377;47.418;18.882;2023-07-20T12:19:12;29.10;62.40
38380;DHT22;38377;47.418;18.882;2023-07-20T12:21:40;29.10;61.20
38380;DHT22;38377;47.418;18.882;2023-07-20T12:24:07;29.20;59.60
38380;DHT22;38377;47.418;18.882;2023-07-20T12:26:34;29.10;58.90
38380;DHT22;38377;47.418;18.882;2023-07-20T12:29:00;29.00;59.60
38380;DHT22;38377;47.418;18.882;2023-07-20T12:31:27;29.00;60.90
38380;DHT22;38377;47.418;18.882;2023-07-20T12:33:53;28.90;59.30
38380;DHT22;38377;47.418;18.882;2023-07-20T12:36:21;28.90;60.80
38380;DHT22;38377;47.418;18.882;2023-07-20T12:38:46;28.90;63.30
38380;DHT22;38377;47.418;18.882;2023-07-20T12:41:13;29.30;62.20
38380;DHT22;38377;47.418;18.882;2023-07-20T12:43:42;29.30;60.30
38380;DHT22;38377;47.418;18.882;2023-07-20T12:46:09;29.20;60.80
38380;DHT22;38377;47.418;18.882;2023-07-20T12:48:36;29.20;61.10
38380;DHT22;38377;47.418;18.882;2023-07-20T12:51:07;29.10;61.70
38380;DHT22;38377;47.418;18.882;2023-07-20T12:53:33;29.30;63.30
38380;DHT22;38377;47.418;18.882;2023-07-20T12:55:59;29.50;63.60
38380;DHT22;38377;47.418;18.882;2023-07-20T12:58:26;29.40;60.40
38380;DHT22;38377;47.418;18.882;2023-07-20T13:00:52;29.30;59.80
38380;DHT22;38377;47.418;18.882;2023-07-20T13:03:17;29.10;60.50
38380;DHT22;38377;47.418;18.882;2023-07-20T13:05:47;28.90;57.40
38380;DHT22;38377;47.418;18.882;2023-07-20T13:08:14;28.60;57.70
38380;DHT22;38377;47.418;18.882;2023-07-20T13:10:40;28.50;58.00
38380;DHT22;38377;47.418;18.882;2023-07-20T13:13:07;28.80;57.80
38380;DHT22;38377;47.418;18.882;2023-07-20T13:15:41;28.90;57.80
38380;DHT22;38377;47.418;18.882;2023-07-20T13:18:07;28.90;57.90
38380;DHT22;38377;47.418;18.882;2023-07-20T13:20:34;28.90;58.70
38380;DHT22;38377;47.418;18.882;2023-07-20T13:23:00;28.90;57.70
38380;DHT22;38377;47.418;18.882;2023-07-20T13:25:28;28.90;58.50
38380;DHT22;38377;47.418;18.882;2023-07-20T13:27:54;29.10;58.60
38380;DHT22;38377;47.418;18.882;2023-07-20T13:30:20;29.10;57.80
38380;DHT22;38377;47.418;18.882;2023-07-20T13:32:47;29.20;58.50
38380;DHT22;38377;47.418;18.882;2023-07-20T13:35:12;29.40;57.80
38380;DHT22;38377;47.418;18.882;2023-07-20T13:37:38;29.40;56.80
38380;DHT22;38377;47.418;18.882;2023-07-20T13:40:05;29.40;56.00
38380;DHT22;38377;47.418;18.882;2023-07-20T13:42:32;29.40;57.20
38380;DHT22;38377;47.418;18.882;2023-07-20T13:44:57;29.50;57.40
38380;DHT22;38377;47.418;18.882;2023-07-20T13:47:23;29.50;56.80
38380;DHT22;38377;47.418;18.882;2023-07-20T13:49:49;29.50;56.70
38380;DHT22;38377;47.418;18.882;2023-07-20T13:52:15;29.50;55.70
38380;DHT22;38377;47.418;18.882;2023-07-20T13:54:41;29.20;57.70
38380;DHT22;38377;47.418;18.882;2023-07-20T13:57:06;29.30;56.40
38380;DHT22;38377;47.418;18.882;2023-07-20T13:59:32;29.10;57.60
38380;DHT22;38377;47.418;18.882;2023-07-20T14:01:58;29.30;57.20
38380;DHT22;38377;47.418;18.882;2023-07-20T14:04:23;29.30;57.00
38380;DHT22;38377;47.418;18.882;2023-07-20T14:06:51;29.10;56.60
38380;DHT22;38377;47.418;18.882;2023-07-20T14:09:16;29.20;57.20
38380;DHT22;38377;47.418;18.882;2023-07-20T14:11:42;29.20;58.10
38380;DHT22;38377;47.418;18.882;2023-07-20T14:14:08;29.30;58.50
38380;DHT22;38377;47.418;18.882;2023-07-20T14:16:33;29.30;57.70
38380;DHT22;38377;47.418;18.882;2023-07-20T14:18:59;29.20;57.80
38380;DHT22;38377;47.418;18.882;2023-07-20T14:21:25;28.90;57.40
38380;DHT22;38377;47.418;18.882;2023-07-20T14:23:52;29.00;57.90
38380;DHT22;38377;47.418;18.882;2023-07-20T14:26:21;29.00;57.80
38380;DHT22;38377;47.418;18.882;2023-07-20T14:28:46;29.10;58.50
38380;DHT22;38377;47.418;18.882;2023-07-20T14:31:12;29.10;57.30
38380;DHT22;38377;47.418;18.882;2023-07-20T14:33:38;29.00;58.30
38380;DHT22;38377;47.418;18.882;2023-07-20T14:36:04;29.10;57.70
38380;DHT22;38377;47.418;18.882;2023-07-20T14:38:34;29.10;57.20
38380;DHT22;38377;47.418;18.882;2023-07-20T14:41:01;29.00;58.30
38380;DHT22;38377;47.418;18.882;2023-07-20T14:43:27;29.00;57.60
38380;DHT22;38377;47.418;18.882;2023-07-20T14:45:52;28.90;57.10
38380;DHT22;38377;47.418;18.882;2023-07-20T14:48:19;28.80;58.30
38380;DHT22;38377;47.418;18.882;2023-07-20T14:50:47;28.80;57.30
38380;DHT22;38377;47.418;18.882;2023-07-20T14:53:15;28.70;58.00
38380;DHT22;38377;47.418;18.882;2023-07-20T14:55:42;28.70;57.90
38380;DHT22;38377;47.418;18.882;2023-07-20T14:58:07;28.70;59.40
38380;DHT22;38377;47.418;18.882;2023-07-20T15:00:34;28.70;58.60
38380;DHT22;38377;47.418;18.882;2023-07-20T15:03:00;28.60;57.50
38380;DHT22;38377;47.418;18.882;2023-07-20T15:05:25;28.60;59.20
38380;DHT22;38377;47.418;18.882;2023-07-20T15:07:54;28.60;57.80
38380;DHT22;38377;47.418;18.882;2023-07-20T15:10:20;28.50;57.30
38380;DHT22;38377;47.418;18.882;2023-07-20T15:12:46;28.50;58.60
38380;DHT22;38377;47.418;18.882;2023-07-20T15:15:13;28.50;56.90
38380;DHT22;38377;47.418;18.882;2023-07-20T15:17:42;28.50;57.50
38380;DHT22;38377;47.418;18.882;2023-07-20T15:20:10;28.20;57.10
38380;DHT22;38377;47.418;18.882;2023-07-20T15:22:36;28.10;57.50
38380;DHT22;38377;47.418;18.882;2023-07-20T15:25:02;28.20;58.20
38380;DHT22;38377;47.418;18.882;2023-07-20T15:27:29;28.30;57.50
38380;DHT22;38377;47.418;18.882;2023-07-20T15:29:55;28.30;57.70
38380;DHT22;38377;47.418;18.882;2023-07-20T15:32:21;28.30;57.20